Time;durP1;ratioP1;P1;durP2;ratioP2;P2;SDS_P1;SDS_P2;PMS_P1;PMS_P2;Temp;Humidity;BMP_temperature;BMP_pressure;BME280_temperature;BME280_humidity;BME280_pressure;Samples;Min_cycle;Max_cycle;Signal;HPM_P1;HPM_P2
2022/11/18 00:02:36;;;;;;;;;;;9.20;87.70;;;;;;9176478;19;20026;-65
2022/11/18 00:05:40;;;;;;;9.50;3.80;;;9.20;87.80;;;;;;9180155;19;20233;-66
2022/11/18 00:08:44;;;;;;;8.93;3.90;;;9.20;87.80;;;;;;9179137;19;20011;-65
2022/11/18 00:15:05;;;;;;;17.52;4.07;;;9.10;87.70;;;;;;9179261;19;19922;-67
2022/11/18 00:18:11;;;;;;;11.00;4.35;;;9.10;87.70;;;;;;9177170;19;20014;-67
2022/11/18 00:21:15;;;;;;;8.85;3.88;;;9.10;87.80;;;;;;9175825;19;20094;-67
2022/11/18 00:24:19;;;;;;;12.07;4.28;;;9.10;87.90;;;;;;9178939;19;20044;-67
2022/11/18 00:27:22;;;;;;;;;;;9.10;87.90;;;;;;9177454;19;20018;-66
2022/11/18 00:30:26;;;;;;;7.78;4.28;;;9.10;87.90;;;;;;9177967;19;19918;-66
2022/11/18 00:33:32;;;;;;;7.93;4.28;;;9.10;87.90;;;;;;9175751;19;20012;-69
2022/11/18 00:36:35;;;;;;;16.10;5.07;;;9.10;87.90;;;;;;9176073;19;20022;-67
2022/11/18 00:39:39;;;;;;;11.45;4.57;;;9.10;88.00;;;;;;9178905;19;20444;-68
2022/11/18 00:42:52;;;;;;;7.00;4.20;;;9.10;88.10;;;;;;9174368;19;20011;-66
2022/11/18 00:45:56;;;;;;;10.55;4.15;;;9.10;88.10;;;;;;9178197;19;20010;-68
2022/11/18 00:49:02;;;;;;;12.52;4.72;;;9.10;88.10;;;;;;9178429;19;20047;-68
2022/11/18 00:52:06;;;;;;;11.95;4.82;;;9.10;88.10;;;;;;9177056;19;20033;-65
2022/11/18 00:55:10;;;;;;;8.00;4.35;;;9.10;88.10;;;;;;9170764;19;20018;-68
2022/11/18 00:58:15;;;;;;;11.75;5.55;;;9.10;88.10;;;;;;9177480;19;20480;-67
2022/11/18 01:01:18;;;;;;;8.82;4.53;;;9.20;88.10;;;;;;9174282;19;20119;-65
2022/11/18 01:04:24;;;;;;;8.10;4.20;;;9.20;88.20;;;;;;9177093;19;20089;-65
2022/11/18 01:07:28;;;;;;;14.45;5.00;;;9.20;88.20;;;;;;9175518;19;20014;-68
2022/11/18 01:10:32;;;;;;;8.93;4.70;;;9.20;88.20;;;;;;9175396;19;20015;-67
2022/11/18 01:13:33;;;;;;;7.53;4.60;;;9.20;88.20;;;;;;9175390;19;20019;-66
2022/11/18 01:16:37;;;;;;;8.02;4.55;;;9.20;88.20;;;;;;9175022;19;20061;-66
2022/11/18 01:19:43;;;;;;;8.48;4.93;;;9.20;88.20;;;;;;9175928;19;20574;-67
2022/11/18 01:22:46;;;;;;;10.05;4.70;;;9.20;88.30;;;;;;9173030;19;20015;-67
2022/11/18 01:25:51;;;;;;;13.75;4.97;;;9.20;88.30;;;;;;9177292;19;20027;-67
2022/11/18 01:28:57;;;;;;;13.13;5.53;;;9.20;88.30;;;;;;9176775;19;20038;-66
2022/11/18 01:32:01;;;;;;;8.63;4.80;;;9.20;88.20;;;;;;9174562;19;20018;-66
2022/11/18 01:35:26;;;;;;;10.63;5.20;;;9.20;88.20;;;;;;9176396;19;20015;-65
2022/11/18 01:38:30;;;;;;;12.43;5.28;;;9.20;88.20;;;;;;9176195;19;20010;-67
2022/11/18 01:41:34;;;;;;;8.77;4.90;;;9.30;88.30;;;;;;9172340;19;20345;-65
2022/11/18 01:45:03;;;;;;;11.48;5.45;;;9.30;88.20;;;;;;9176126;19;20019;-67
2022/11/18 01:48:12;;;;;;;9.75;4.53;;;9.30;88.30;;;;;;9183039;19;20014;-67
2022/11/18 01:51:20;;;;;;;10.68;5.35;;;9.30;88.20;;;;;;9181600;19;20025;-65
2022/11/18 01:54:28;;;;;;;6.40;4.70;;;9.30;88.20;;;;;;9177737;19;20014;-68
2022/11/18 01:57:32;;;;;;;12.65;6.30;;;9.30;88.30;;;;;;9183720;19;20022;-68
2022/11/18 02:00:36;;;;;;;;;;;9.30;88.30;;;;;;9183006;19;20017;-69
2022/11/18 02:03:40;;;;;;;11.32;5.85;;;9.30;88.30;;;;;;9183197;19;19914;-68
2022/11/18 02:06:47;;;;;;;14.73;5.55;;;9.30;88.20;;;;;;9181165;19;20040;-67
2022/11/18 02:09:52;;;;;;;11.95;5.28;;;9.30;88.20;;;;;;9180838;19;20033;-68
2022/11/18 02:12:57;;;;;;;10.18;6.00;;;9.40;88.30;;;;;;9180937;19;20017;-69
2022/11/18 02:16:09;;;;;;;12.57;6.03;;;9.30;88.30;;;;;;9182673;19;20015;-67
2022/11/18 02:19:33;;;;;;;10.95;5.72;;;9.30;88.40;;;;;;9182747;19;20090;-68
2022/11/18 02:22:54;;;;;;;15.88;5.40;;;9.30;88.40;;;;;;9180185;19;20018;-66
2022/11/18 02:26:27;;;;;;;11.05;5.68;;;9.40;88.40;;;;;;9180172;19;20381;-67
2022/11/18 02:29:38;;;;;;;8.88;5.88;;;9.40;88.50;;;;;;9182601;19;20349;-67
2022/11/18 02:32:45;;;;;;;12.27;6.82;;;9.40;88.40;;;;;;9180573;19;20048;-67
2022/11/18 02:35:54;;;;;;;16.02;6.05;;;9.40;88.40;;;;;;9183024;19;20015;-67
2022/11/18 02:39:04;;;;;;;11.80;6.28;;;9.40;88.50;;;;;;9181506;19;20031;-67
2022/11/18 02:42:11;;;;;;;12.63;6.32;;;9.40;88.40;;;;;;9177843;19;20019;-67
2022/11/18 02:45:19;;;;;;;10.73;6.15;;;9.40;88.40;;;;;;9181581;19;20468;-69
2022/11/18 02:48:25;;;;;;;12.40;6.03;;;9.40;88.40;;;;;;9182318;19;20010;-68
2022/11/18 02:51:32;;;;;;;11.80;6.15;;;9.30;88.40;;;;;;9182851;19;20451;-68
2022/11/18 02:54:40;;;;;;;16.10;6.85;;;9.30;88.40;;;;;;9173366;19;20015;-68
2022/11/18 02:57:45;;;;;;;13.93;6.35;;;9.40;88.40;;;;;;9179324;19;20471;-66
2022/11/18 03:00:56;;;;;;;13.15;5.72;;;9.30;88.40;;;;;;9178073;19;20520;-66
2022/11/18 03:04:00;;;;;;;9.82;5.95;;;9.30;88.40;;;;;;9179788;19;20014;-68
2022/11/18 03:07:12;;;;;;;15.18;6.32;;;9.30;88.40;;;;;;9181108;19;20406;-67
2022/11/18 03:10:16;;;;;;;16.05;5.82;;;9.30;88.50;;;;;;9178882;19;20025;-68
2022/11/18 03:13:22;;;;;;;;;;;9.30;88.40;;;;;;9181295;19;20074;-66
2022/11/18 03:16:32;;;;;;;9.18;6.07;;;9.30;88.40;;;;;;9179396;19;19926;-67
2022/11/18 03:19:48;;;;;;;15.60;7.15;;;9.20;88.20;;;;;;9181646;19;20230;-68
2022/11/18 03:22:57;;;;;;;12.63;7.05;;;9.20;88.30;;;;;;9177545;19;20040;-67
2022/11/18 03:26:03;;;;;;;14.77;7.90;;;9.20;88.30;;;;;;9180082;19;20057;-67
2022/11/18 03:29:13;;;;;;;15.13;8.23;;;9.20;88.40;;;;;;9180991;19;20058;-68
2022/11/18 03:32:25;;;;;;;16.15;8.10;;;9.20;88.50;;;;;;9180820;19;20038;-68
2022/11/18 03:35:33;;;;;;;18.40;8.90;;;9.10;88.40;;;;;;9180315;19;20007;-67
2022/11/18 03:38:41;;;;;;;16.83;8.65;;;9.20;89.10;;;;;;9180475;19;20081;-67
2022/11/18 03:41:49;;;;;;;19.63;9.98;;;9.10;88.50;;;;;;9177860;19;20052;-66
2022/11/18 03:44:56;;;;;;;16.23;9.52;;;9.10;88.50;;;;;;9179749;19;20018;-66
2022/11/18 03:48:08;;;;;;;18.25;10.40;;;9.10;88.60;;;;;;9179299;19;20055;-68
2022/11/18 03:51:15;;;;;;;33.72;12.25;;;9.10;88.60;;;;;;9177759;19;20010;-67
2022/11/18 03:54:24;;;;;;;20.55;13.20;;;9.10;88.60;;;;;;9172856;19;20520;-67
2022/11/18 03:57:35;;;;;;;22.92;13.45;;;9.10;88.60;;;;;;9179053;19;20015;-67
2022/11/18 04:00:43;;;;;;;26.42;14.82;;;9.10;88.60;;;;;;9178853;19;20010;-66
2022/11/18 04:03:49;;;;;;;28.60;13.98;;;9.10;88.60;;;;;;9179980;19;20021;-67
2022/11/18 04:06:59;;;;;;;25.00;15.05;;;9.10;88.60;;;;;;9176306;19;20025;-66
2022/11/18 04:10:09;;;;;;;30.13;15.77;;;9.10;88.60;;;;;;9177723;19;20021;-68
2022/11/18 04:13:19;;;;;;;25.92;14.55;;;9.10;88.70;;;;;;9178843;19;20416;-67
2022/11/18 04:16:23;;;;;;;31.52;16.10;;;9.10;88.70;;;;;;9178750;19;20018;-68
2022/11/18 04:19:29;;;;;;;28.55;15.82;;;9.10;88.70;;;;;;9177224;19;20463;-66
2022/11/18 04:22:33;;;;;;;28.65;17.02;;;9.10;88.70;;;;;;9175597;19;20018;-67
2022/11/18 04:25:37;;;;;;;33.47;15.70;;;9.10;88.70;;;;;;9179298;19;20324;-67
2022/11/18 04:28:41;;;;;;;30.60;15.95;;;9.10;88.90;;;;;;9178465;19;20022;-67
2022/11/18 04:31:45;;;;;;;34.30;16.05;;;9.10;88.80;;;;;;9178467;19;20026;-69
2022/11/18 04:34:50;;;;;;;27.50;15.25;;;9.10;88.80;;;;;;9178360;19;20018;-68
2022/11/18 04:37:54;;;;;;;30.65;15.52;;;9.20;88.80;;;;;;9176942;19;20031;-67
2022/11/18 04:40:58;;;;;;;33.78;16.75;;;9.20;89.40;;;;;;9176494;19;20052;-66
2022/11/18 04:44:11;;;;;;;33.33;16.85;;;9.20;88.80;;;;;;9177762;19;20048;-67
2022/11/18 04:47:15;;;;;;;34.20;16.48;;;9.20;88.80;;;;;;9178439;19;20035;-67
2022/11/18 04:50:21;;;;;;;31.60;15.90;;;9.20;88.80;;;;;;9177788;19;20027;-67
2022/11/18 04:53:24;;;;;;;31.58;16.90;;;9.20;88.80;;;;;;9165708;19;20030;-69
2022/11/18 04:56:28;;;;;;;35.67;17.45;;;9.20;88.80;;;;;;9170297;19;20035;-69
2022/11/18 04:59:32;;;;;;;30.98;17.20;;;9.20;88.80;;;;;;9169396;19;20018;-69
2022/11/18 05:02:35;;;;;;;31.70;16.75;;;9.20;88.80;;;;;;9165268;19;20475;-68
2022/11/18 05:05:41;;;;;;;29.08;15.68;;;9.20;88.80;;;;;;9167839;19;20007;-69
2022/11/18 05:08:45;;;;;;;28.27;15.75;;;9.20;88.80;;;;;;9168634;19;20015;-68
2022/11/18 05:15:07;;;;;;;38.80;17.48;;;9.20;88.90;;;;;;9176801;19;20126;-67
2022/11/18 05:18:12;;;;;;;33.75;16.88;;;9.20;88.90;;;;;;9177550;19;20028;-67
2022/11/18 05:21:18;;;;;;;36.63;17.27;;;9.20;88.90;;;;;;9176300;19;20028;-69
2022/11/18 05:24:23;;;;;;;33.13;17.15;;;9.20;88.90;;;;;;9185139;19;20047;-68
2022/11/18 05:27:27;;;;;;;30.67;15.23;;;9.20;88.90;;;;;;9182638;19;20431;-67
2022/11/18 05:30:30;;;;;;;;;;;9.20;88.90;;;;;;9183389;19;20064;-66
2022/11/18 05:33:34;;;;;;;33.70;16.33;;;9.20;88.90;;;;;;9184821;19;20343;-67
2022/11/18 05:36:39;;;;;;;27.85;15.40;;;9.20;88.80;;;;;;9183969;19;20018;-67
2022/11/18 05:39:43;;;;;;;40.83;16.63;;;9.20;88.80;;;;;;9184946;19;20014;-66
2022/11/18 05:46:05;;;;;;;29.80;16.17;;;9.20;88.90;;;;;;9184270;19;20022;-67
2022/11/18 05:49:08;;;;;;;31.75;16.73;;;9.20;88.90;;;;;;9181783;19;20039;-66
2022/11/18 05:52:14;;;;;;;31.58;16.98;;;9.20;89.00;;;;;;9183143;19;20086;-66
2022/11/18 05:55:18;;;;;;;35.03;16.40;;;9.20;88.90;;;;;;9175976;19;20552;-68
2022/11/18 05:58:24;;;;;;;30.40;15.10;;;9.20;88.90;;;;;;9182016;19;20042;-68
2022/11/18 06:01:33;;;;;;;30.20;15.55;;;9.20;88.90;;;;;;9180852;19;20019;-67
2022/11/18 06:04:41;;;;;;;34.25;17.50;;;9.20;88.90;;;;;;9181852;19;20042;-69
2022/11/18 06:07:47;;;;;;;36.00;16.17;;;9.20;88.90;;;;;;9180865;19;20082;-68
2022/11/18 06:10:52;;;;;;;30.55;16.65;;;9.50;91.00;;;;;;9182829;19;20007;-68
2022/11/18 06:14:02;;;;;;;36.20;17.30;;;9.20;88.90;;;;;;9183909;19;20456;-67
2022/11/18 06:17:10;;;;;;;35.63;15.20;;;9.20;88.90;;;;;;9183729;19;20019;-67
2022/11/18 06:20:14;;;;;;;28.00;15.93;;;9.20;89.00;;;;;;9182905;19;20019;-68
2022/11/18 06:23:20;;;;;;;30.92;16.23;;;9.20;89.00;;;;;;9180159;19;20021;-69
2022/11/18 06:26:23;;;;;;;32.03;16.45;;;9.20;89.00;;;;;;9182970;19;20086;-67
2022/11/18 06:29:28;;;;;;;27.25;15.73;;;9.30;89.00;;;;;;9182671;19;20022;-68
2022/11/18 06:32:32;;;;;;;33.63;16.63;;;9.20;88.90;;;;;;9182222;19;20014;-66
2022/11/18 06:35:36;;;;;;;29.30;15.45;;;9.20;88.90;;;;;;9182587;19;20571;-67
2022/11/18 06:38:42;;;;;;;31.40;17.58;;;9.30;89.00;;;;;;9182578;19;20022;-68
2022/11/18 06:41:46;;;;;;;30.30;16.35;;;9.30;89.20;;;;;;9181295;19;20485;-69
2022/11/18 06:44:49;;;;;;;35.55;18.63;;;9.30;89.00;;;;;;9182275;19;20122;-66
2022/11/18 06:47:56;;;;;;;31.30;15.88;;;9.30;89.10;;;;;;9182070;19;20646;-68
2022/11/18 06:51:00;;;;;;;34.13;16.98;;;9.30;89.00;;;;;;9182512;19;20070;-68
2022/11/18 06:54:06;;;;;;;33.55;17.00;;;9.30;89.00;;;;;;9175621;19;20115;-67
2022/11/18 06:57:14;;;;;;;33.30;17.48;;;9.20;89.00;;;;;;9181193;19;20015;-68
2022/11/18 07:00:18;;;;;;;;;;;9.20;89.00;;;;;;9182265;19;20022;-68
2022/11/18 07:03:22;;;;;;;34.53;15.80;;;9.30;89.10;;;;;;9178527;19;19925;-68
2022/11/18 07:06:28;;;;;;;34.92;16.90;;;9.30;89.00;;;;;;9181407;19;20025;-68
2022/11/18 07:09:35;;;;;;;35.33;16.45;;;9.30;89.20;;;;;;9181823;19;20027;-66
2022/11/18 07:12:38;;;;;;;33.25;17.00;;;9.30;89.10;;;;;;9181131;19;20048;-66
2022/11/18 07:15:42;;;;;;;32.13;16.10;;;9.20;89.10;;;;;;9181826;19;20400;-66
2022/11/18 07:18:46;;;;;;;;;;;9.30;89.10;;;;;;9182472;19;20014;-68
2022/11/18 07:21:50;;;;;;;29.08;15.45;;;9.30;89.10;;;;;;9179557;19;19948;-67
2022/11/18 07:24:56;;;;;;;37.53;17.58;;;9.30;89.00;;;;;;9180418;19;20022;-68
2022/11/18 07:28:00;;;;;;;32.38;17.02;;;9.30;89.00;;;;;;9180886;19;20344;-68
2022/11/18 07:31:05;;;;;;;33.95;16.52;;;9.30;89.10;;;;;;9180216;19;20079;-69
2022/11/18 07:34:09;;;;;;;31.10;16.70;;;9.30;89.10;;;;;;9180838;19;20325;-68
2022/11/18 07:37:12;;;;;;;30.13;16.70;;;9.30;89.10;;;;;;9180465;19;20023;-67
2022/11/18 07:40:18;;;;;;;31.08;16.33;;;9.30;89.20;;;;;;9180996;19;20108;-67
2022/11/18 07:43:22;;;;;;;34.53;17.10;;;9.30;89.20;;;;;;9173999;19;20015;-68
2022/11/18 07:46:28;;;;;;;32.38;17.55;;;9.30;89.20;;;;;;9179796;19;20018;-68
2022/11/18 07:49:32;;;;;;;33.80;17.10;;;9.30;89.20;;;;;;9179916;19;20456;-68
2022/11/18 07:52:35;;;;;;;32.42;16.58;;;9.30;89.20;;;;;;9180041;19;20044;-69
2022/11/18 07:55:41;;;;;;;31.65;16.48;;;9.30;89.20;;;;;;9172782;19;20021;-67
2022/11/18 07:58:45;;;;;;;34.63;16.40;;;9.30;89.20;;;;;;9178165;19;20031;-68
2022/11/18 08:01:49;;;;;;;34.38;16.55;;;9.30;89.20;;;;;;9177660;19;20099;-69
2022/11/18 08:04:52;;;;;;;28.50;15.55;;;9.30;89.20;;;;;;9179594;19;20046;-68
2022/11/18 08:07:56;;;;;;;28.42;16.70;;;9.30;89.20;;;;;;9177589;19;20021;-67
2022/11/18 08:11:04;;;;;;;31.92;16.35;;;9.30;89.20;;;;;;9179848;19;20033;-68
2022/11/18 08:14:08;;;;;;;28.88;15.00;;;9.30;89.20;;;;;;9178914;19;20121;-69
2022/11/18 08:17:12;;;;;;;30.85;16.05;;;9.30;89.20;;;;;;9171335;19;20052;-68
2022/11/18 08:20:16;;;;;;;29.90;16.13;;;9.30;89.20;;;;;;9173990;19;20018;-68
2022/11/18 08:23:20;;;;;;;30.17;14.90;;;9.30;89.20;;;;;;9174969;19;20011;-67
2022/11/18 08:26:26;;;;;;;30.10;15.93;;;9.30;89.30;;;;;;9178992;19;20033;-67
2022/11/18 08:29:32;;;;;;;29.58;15.23;;;9.30;89.30;;;;;;9177925;19;20018;-70
2022/11/18 08:32:36;;;;;;;34.00;15.93;;;9.30;89.30;;;;;;9176822;19;20014;-67
2022/11/18 08:35:39;;;;;;;;;;;9.30;89.30;;;;;;9171357;19;20018;-68
2022/11/18 08:38:43;;;;;;;28.17;14.93;;;9.30;89.30;;;;;;9176212;19;19926;-68
2022/11/18 08:41:49;;;;;;;30.80;15.50;;;9.30;89.10;;;;;;9175441;19;20502;-68
2022/11/18 08:44:53;;;;;;;25.67;13.82;;;9.30;89.20;;;;;;9178759;19;20062;-69
2022/11/18 08:47:57;;;;;;;28.75;15.60;;;9.30;89.30;;;;;;9172665;19;20101;-67
2022/11/18 08:51:01;;;;;;;25.38;14.88;;;9.40;89.40;;;;;;9177568;19;20007;-68
2022/11/18 08:54:05;;;;;;;28.52;15.65;;;9.40;89.40;;;;;;9172123;19;20015;-67
2022/11/18 08:57:11;;;;;;;27.65;14.15;;;9.40;89.40;;;;;;9173922;19;20022;-67
2022/11/18 09:00:16;;;;;;;25.08;14.77;;;9.40;89.40;;;;;;9177360;19;20061;-69
2022/11/18 09:03:20;;;;;;;26.00;14.85;;;9.40;89.40;;;;;;9173575;19;20022;-67
2022/11/18 09:06:25;;;;;;;25.30;15.00;;;9.40;89.40;;;;;;9177290;19;20052;-66
2022/11/18 09:09:29;;;;;;;29.63;15.13;;;9.40;89.40;;;;;;9177914;19;20084;-69
2022/11/18 09:12:34;;;;;;;30.30;15.55;;;9.40;89.40;;;;;;9176918;19;20011;-68
2022/11/18 09:15:38;;;;;;;30.80;15.13;;;9.40;89.40;;;;;;9175709;19;20039;-69
2022/11/18 09:18:42;;;;;;;30.70;14.27;;;9.40;89.40;;;;;;9172266;19;20022;-69
2022/11/18 09:21:45;;;;;;;27.25;14.10;;;9.40;89.40;;;;;;9171321;19;20022;-69
2022/11/18 09:24:49;;;;;;;28.30;15.25;;;9.50;89.40;;;;;;9172734;19;20015;-68
2022/11/18 09:27:55;;;;;;;25.35;15.32;;;9.50;89.40;;;;;;9174573;19;20010;-67
2022/11/18 09:30:59;;;;;;;31.95;14.75;;;9.50;89.50;;;;;;9175116;19;20022;-68
2022/11/18 09:34:02;;;;;;;25.90;13.57;;;9.50;89.50;;;;;;9172613;19;20421;-69
2022/11/18 09:37:06;;;;;;;25.27;13.65;;;9.50;89.50;;;;;;9169911;19;20026;-71
2022/11/18 09:40:17;;;;;;;23.95;13.32;;;9.50;89.50;;;;;;9169216;19;20015;-70
2022/11/18 09:43:29;;;;;;;25.65;13.63;;;9.50;89.60;;;;;;9166284;19;20019;-72
2022/11/18 09:46:44;;;;;;;23.52;13.15;;;9.50;89.50;;;;;;9169967;19;20101;-71
2022/11/18 09:49:49;;;;;;;24.27;13.35;;;9.50;89.50;;;;;;9167708;19;20042;-71
2022/11/18 09:53:05;;;;;;;25.45;12.68;;;9.50;89.50;;;;;;9166443;19;20014;-72
2022/11/18 09:56:15;;;;;;;25.90;12.52;;;9.50;89.50;;;;;;9166063;19;20015;-71
2022/11/18 09:59:22;;;;;;;24.77;12.38;;;9.60;89.60;;;;;;9169589;19;20014;-71
2022/11/18 10:02:38;;;;;;;23.35;11.45;;;9.60;89.60;;;;;;9165565;19;20364;-71
2022/11/18 10:05:49;;;;;;;22.02;12.65;;;9.60;89.60;;;;;;9168519;19;20496;-72
2022/11/18 10:09:13;;;;;;;20.08;12.02;;;9.60;89.60;;;;;;9174419;19;20025;-71
2022/11/18 10:12:27;;;;;;;22.45;11.38;;;9.60;89.60;;;;;;9176433;19;20343;-71
2022/11/18 10:15:38;;;;;;;22.50;11.98;;;9.60;89.60;;;;;;9177429;19;20087;-70
2022/11/18 10:18:49;;;;;;;21.30;11.25;;;9.60;89.60;;;;;;9177565;19;20094;-72
2022/11/18 10:22:20;;;;;;;19.45;11.20;;;9.60;89.60;;;;;;9174239;19;20024;-73
2022/11/18 10:25:28;;;;;;;18.67;10.95;;;9.60;89.60;;;;;;9176156;19;20026;-73
2022/11/18 10:28:32;;;;;;;20.58;11.82;;;9.60;89.50;;;;;;9176683;19;20093;-71
2022/11/18 10:31:39;;;;;;;22.45;10.63;;;9.60;89.60;;;;;;9174977;19;20014;-73
2022/11/18 10:34:50;;;;;;;26.58;10.60;;;9.60;89.60;;;;;;9179003;19;20046;-71
2022/11/18 10:38:03;;;;;;;20.77;11.43;;;9.60;89.60;;;;;;9171756;19;20010;-72
2022/11/18 10:41:15;;;;;;;19.80;10.13;;;9.60;89.60;;;;;;9177254;19;20460;-73
2022/11/18 10:44:34;;;;;;;17.38;10.52;;;9.60;89.50;;;;;;9178407;19;20014;-69
2022/11/18 10:47:40;;;;;;;18.63;10.55;;;9.60;89.60;;;;;;9172313;19;20039;-70
2022/11/18 10:50:49;;;;;;;17.17;10.60;;;9.60;89.50;;;;;;9179872;19;20098;-70
2022/11/18 10:54:09;;;;;;;20.80;9.85;;;9.60;89.60;;;;;;9174903;19;20480;-72
2022/11/18 10:57:19;;;;;;;15.13;9.60;;;9.60;89.70;;;;;;9179012;19;20003;-71
2022/11/18 11:00:40;;;;;;;16.50;9.35;;;9.60;89.60;;;;;;9179644;19;20019;-72
2022/11/18 11:03:57;;;;;;;17.50;9.20;;;9.70;89.70;;;;;;9177859;19;20014;-70
2022/11/18 11:07:16;;;;;;;14.60;8.27;;;9.70;89.70;;;;;;9178937;19;20014;-71
2022/11/18 11:10:23;;;;;;;14.43;8.02;;;9.60;89.60;;;;;;9180744;19;20812;-70
2022/11/18 11:13:31;;;;;;;16.35;7.90;;;9.60;89.50;;;;;;9179265;19;20022;-70
2022/11/18 11:16:45;;;;;;;16.90;8.38;;;9.60;89.60;;;;;;9176645;19;20023;-70
2022/11/18 11:19:57;;;;;;;15.05;8.55;;;9.60;89.70;;;;;;9176482;19;20030;-70
2022/11/18 11:23:01;;;;;;;15.13;8.35;;;9.60;89.70;;;;;;9176218;19;20014;-70
2022/11/18 11:26:14;;;;;;;16.88;10.27;;;9.60;89.70;;;;;;9177178;19;20021;-72
2022/11/18 11:30:04;;;;;;;20.70;10.35;;;9.60;89.70;;;;;;9176728;19;20444;-71
2022/11/18 11:33:23;;;;;;;19.88;11.07;;;9.60;89.70;;;;;;9176603;19;20014;-71
2022/11/18 11:36:38;;;;;;;21.45;11.50;;;9.60;89.70;;;;;;9176530;19;20026;-71
2022/11/18 11:39:54;;;;;;;23.23;12.10;;;9.60;89.70;;;;;;9178873;19;20010;-70
2022/11/18 11:43:24;;;;;;;23.23;11.05;;;9.60;89.70;;;;;;9172638;19;20022;-72
2022/11/18 11:46:34;;;;;;;17.85;10.23;;;9.60;89.80;;;;;;9179241;19;20022;-71
2022/11/18 11:49:53;;;;;;;23.83;12.05;;;9.60;89.70;;;;;;9177124;19;20029;-73
2022/11/18 11:53:16;;;;;;;24.67;11.73;;;9.60;89.70;;;;;;9174794;19;20010;-71
2022/11/18 11:56:26;;;;;;;18.88;10.77;;;9.60;89.70;;;;;;9180456;19;20011;-71
2022/11/18 11:59:38;;;;;;;19.92;11.65;;;9.70;89.70;;;;;;9178318;19;20031;-71
2022/11/18 12:02:58;;;;;;;18.20;10.80;;;9.60;89.70;;;;;;9177379;19;20032;-70
2022/11/18 12:06:02;;;;;;;17.45;10.70;;;9.60;89.70;;;;;;9175669;19;20038;-73
2022/11/18 12:09:17;;;;;;;21.05;11.25;;;9.60;89.70;;;;;;9175490;19;20507;-72
2022/11/18 12:12:36;;;;;;;19.42;11.65;;;9.60;89.70;;;;;;9174987;19;20544;-72
2022/11/18 12:15:57;;;;;;;22.02;11.52;;;9.60;89.70;;;;;;9175520;19;20018;-71
2022/11/18 12:19:07;;;;;;;15.40;9.38;;;9.60;89.70;;;;;;9172949;19;20582;-66
2022/11/18 12:22:11;;;;;;;19.15;9.40;;;9.60;89.70;;;;;;9175957;19;20019;-68
2022/11/18 12:25:45;;;;;;;13.70;9.10;;;9.60;89.70;;;;;;9177695;19;20111;-70
2022/11/18 12:28:51;;;;;;;12.82;7.57;;;9.60;90.10;;;;;;9176672;19;20018;-68
2022/11/18 12:31:56;;;;;;;13.35;7.43;;;9.50;89.40;;;;;;9178137;19;20026;-70
2022/11/18 12:35:03;;;;;;;13.77;7.57;;;9.50;89.40;;;;;;9173383;19;20031;-70
2022/11/18 12:38:07;;;;;;;12.93;8.07;;;9.40;89.40;;;;;;9176140;19;20021;-70
2022/11/18 12:45:34;;;;;;;14.38;8.70;;;9.40;89.30;;;;;;9176844;19;20022;-69
2022/11/18 12:48:40;;;;;;;15.77;8.25;;;9.30;89.30;;;;;;9177538;19;20252;-69
2022/11/18 12:51:45;;;;;;;14.57;9.52;;;9.20;89.30;;;;;;9174741;19;20029;-68
2022/11/18 12:54:50;;;;;;;18.05;9.35;;;9.20;89.30;;;;;;9167941;19;20014;-68
2022/11/18 12:57:53;;;;;;;16.33;8.75;;;9.20;89.30;;;;;;9177593;19;20715;-67
2022/11/18 13:01:12;;;;;;;15.40;9.07;;;9.20;89.30;;;;;;9177258;19;20006;-68
2022/11/18 13:04:18;;;;;;;23.20;10.82;;;9.10;89.30;;;;;;9173421;19;20010;-68
2022/11/18 13:10:46;;;;;;;20.08;10.68;;;9.00;89.20;;;;;;9177308;19;20076;-69
2022/11/18 13:20:56;;;;;;;22.50;9.60;;;8.90;89.10;;;;;;9172057;19;20055;-68
2022/11/18 13:23:59;;;;;;;18.85;9.20;;;8.90;89.20;;;;;;9166164;19;20014;-67
2022/11/18 13:27:04;;;;;;;19.13;9.82;;;8.90;89.20;;;;;;9170924;19;20491;-66
2022/11/18 13:30:12;;;;;;;17.02;10.20;;;8.80;89.20;;;;;;9172548;19;20026;-71
2022/11/18 13:33:18;;;;;;;20.95;10.70;;;8.80;89.30;;;;;;9175169;19;20022;-69
2022/11/18 13:36:24;;;;;;;23.42;10.20;;;8.70;89.10;;;;;;9176802;19;20014;-68
2022/11/18 13:39:30;;;;;;;15.70;8.95;;;8.80;89.20;;;;;;9176019;19;20027;-68
2022/11/18 13:42:34;;;;;;;19.02;8.32;;;8.70;89.20;;;;;;9178499;19;20018;-68
2022/11/18 13:45:40;;;;;;;18.13;9.13;;;8.70;89.20;;;;;;9184120;19;20096;-67
2022/11/18 13:48:50;;;;;;;20.00;9.95;;;8.70;89.20;;;;;;9184024;19;20011;-67
2022/11/18 13:51:55;;;;;;;30.70;12.90;;;8.70;89.20;;;;;;9183765;19;20018;-68
2022/11/18 13:55:01;;;;;;;20.35;10.55;;;8.60;89.00;;;;;;9178404;19;20054;-67
2022/11/18 13:58:21;;;;;;;25.45;12.20;;;8.60;89.10;;;;;;9184268;19;20010;-68
2022/11/18 14:01:27;;;;;;;24.33;11.40;;;8.60;89.10;;;;;;9181896;19;20038;-66
2022/11/18 14:04:34;;;;;;;27.27;11.75;;;8.50;89.00;;;;;;9179339;19;20018;-68
2022/11/18 14:07:38;;;;;;;23.77;12.25;;;8.50;89.00;;;;;;9180773;19;20021;-67
2022/11/18 14:10:44;;;;;;;23.00;11.45;;;8.50;89.00;;;;;;9182047;19;20021;-67
2022/11/18 14:14:00;;;;;;;26.75;12.43;;;8.50;89.00;;;;;;9182822;19;20022;-67
2022/11/18 14:17:18;;;;;;;27.55;12.60;;;8.40;89.00;;;;;;9183275;19;20022;-67
2022/11/18 14:20:25;;;;;;;30.65;11.05;;;8.40;88.90;;;;;;9182722;19;20499;-67
2022/11/18 14:23:31;;;;;;;28.52;12.07;;;8.30;88.90;;;;;;9180448;19;20006;-66
2022/11/18 14:26:37;;;;;;;25.55;11.75;;;8.30;88.90;;;;;;9182755;19;20022;-67
2022/11/18 14:29:50;;;;;;;25.10;11.48;;;8.20;88.80;;;;;;9180813;19;20018;-68
2022/11/18 14:33:10;;;;;;;24.27;11.60;;;8.20;88.80;;;;;;9178285;19;20030;-67
2022/11/18 14:36:17;;;;;;;23.67;10.48;;;8.10;88.90;;;;;;9177355;19;20011;-66
2022/11/18 14:39:24;;;;;;;21.13;10.57;;;8.10;88.90;;;;;;9175968;19;20014;-68
2022/11/18 14:42:30;;;;;;;20.38;9.57;;;8.10;88.80;;;;;;9176217;19;20384;-67
2022/11/18 14:45:34;;;;;;;;;;;8.00;88.80;;;;;;9179211;19;20049;-67
2022/11/18 14:48:38;;;;;;;16.67;8.38;;;8.00;88.80;;;;;;9181556;19;19919;-67
2022/11/18 14:51:44;;;;;;;20.10;9.80;;;7.90;88.70;;;;;;9181817;19;20054;-66
2022/11/18 14:54:50;;;;;;;18.55;9.93;;;7.90;88.70;;;;;;9171585;19;20107;-68
2022/11/18 14:57:54;;;;;;;21.23;10.45;;;7.80;88.70;;;;;;9181463;19;20023;-66
2022/11/18 15:00:58;;;;;;;20.80;10.55;;;7.80;88.70;;;;;;9181483;19;20027;-66
2022/11/18 15:04:02;;;;;;;24.08;9.90;;;7.70;88.80;;;;;;9179618;19;20398;-67
2022/11/18 15:07:09;;;;;;;22.67;9.98;;;7.70;88.80;;;;;;9179842;19;20021;-68
2022/11/18 15:10:16;;;;;;;22.30;10.73;;;7.60;88.70;;;;;;9181299;19;20057;-67
2022/11/18 15:13:19;;;;;;;22.92;11.20;;;7.60;88.70;;;;;;9181524;19;20018;-68
2022/11/18 15:16:25;;;;;;;25.38;11.20;;;7.50;88.60;;;;;;9181438;19;20042;-66
2022/11/18 15:19:29;;;;;;;20.13;9.65;;;7.50;88.70;;;;;;9179979;19;20018;-67
2022/11/18 15:22:37;;;;;;;20.73;9.63;;;7.40;88.70;;;;;;9179814;19;20007;-67
2022/11/18 15:25:41;;;;;;;18.23;9.32;;;7.50;88.80;;;;;;9180647;19;20598;-66
2022/11/18 15:28:44;;;;;;;;;;;7.40;88.60;;;;;;9181504;19;20125;-66
2022/11/18 15:31:49;;;;;;;17.13;7.80;;;7.40;88.60;;;;;;9173025;19;19922;-67
2022/11/18 15:34:53;;;;;;;22.10;9.60;;;7.30;88.50;;;;;;9173675;19;20014;-69
2022/11/18 15:37:58;;;;;;;19.63;9.65;;;7.20;88.40;;;;;;9172832;19;20022;-66
2022/11/18 15:41:02;;;;;;;20.90;10.68;;;7.20;88.50;;;;;;9172785;19;20014;-68
2022/11/18 15:44:06;;;;;;;21.23;10.52;;;7.10;88.60;;;;;;9169611;19;20022;-67
2022/11/18 15:47:10;;;;;;;22.63;10.13;;;7.00;88.60;;;;;;9173629;19;20018;-67
2022/11/18 15:50:14;;;;;;;22.02;10.05;;;7.00;88.60;;;;;;9174003;19;20018;-67
2022/11/18 15:53:19;;;;;;;;;;;6.90;88.50;;;;;;9168850;19;20011;-69
2022/11/18 15:56:28;;;;;;;23.92;10.98;;;6.90;88.60;;;;;;9172519;19;19940;-68
2022/11/18 15:59:32;;;;;;;24.15;10.35;;;6.90;88.50;;;;;;9173317;19;20014;-70
2022/11/18 16:02:36;;;;;;;25.17;11.52;;;6.80;88.50;;;;;;9172021;19;20018;-67
2022/11/18 16:05:39;;;;;;;27.00;11.88;;;6.70;88.50;;;;;;9171950;19;20070;-67
2022/11/18 16:08:45;;;;;;;21.02;9.50;;;6.70;88.50;;;;;;9172559;19;20028;-67
2022/11/18 16:18:24;;;;;;;26.08;10.80;;;6.60;88.40;;;;;;9168969;19;20487;-67
2022/11/18 16:21:29;;;;;;;22.48;11.25;;;6.60;88.40;;;;;;9173087;19;20027;-67
2022/11/18 16:24:35;;;;;;;25.83;12.32;;;6.50;88.40;;;;;;9169942;19;20053;-66
2022/11/18 16:27:38;;;;;;;24.42;11.30;;;6.40;88.40;;;;;;9170688;19;20023;-68
2022/11/18 16:33:59;;;;;;;23.88;10.75;;;6.30;88.30;;;;;;9172563;19;20053;-66
2022/11/18 16:37:05;;;;;;;21.70;10.32;;;6.30;88.40;;;;;;9172627;19;20025;-66
2022/11/18 16:40:12;;;;;;;20.23;10.50;;;6.20;88.40;;;;;;9168550;19;20596;-66
2022/11/18 16:43:16;;;;;;;22.27;10.60;;;6.20;88.40;;;;;;9167941;19;20018;-67
2022/11/18 16:46:19;;;;;;;17.65;9.90;;;6.20;88.40;;;;;;9172584;19;20093;-65
2022/11/18 16:49:25;;;;;;;17.27;9.68;;;6.20;88.40;;;;;;9173117;19;20042;-66